This is the latest recevied weather packets stored in our database for station/object G4MHJ-1. If no packets are shown the sender has not sent any weather packets the latest 10 day(s).
| Time | Temp. | Humidity | Pressure | Rain* | Wind** | Luminosity | Snow |
|---|---|---|---|---|---|---|---|
| 1777569593 | 17.22° C | 47% | 1020.5 hPa | 0 mm | - | 297 W/m² | - |
| 1777565992 | 17.78° C | 42% | 1021.1 hPa | 0 mm | - | 475 W/m² | - |
| 1777562392 | 18.33° C | 39% | 1021 hPa | 0 mm | - | 624 W/m² | - |
| 1777558793 | 18.33° C | 44% | 1021.6 hPa | 0 mm | - | 752 W/m² | - |
| 1777555192 | 17.22° C | 51% | 1021.9 hPa | 0 mm | - | 824 W/m² | - |
| 1777551591 | 16.11° C | 59% | 1022.5 hPa | 0 mm | - | 847 W/m² | - |
| 1777547993 | 15.56° C | 61% | 1022.5 hPa | 0 mm | - | 121 W/m² | - |
| 1777544392 | 15.56° C | 61% | 1022.6 hPa | 0 mm | - | 97 W/m² | - |
| 1777540794 | 15° C | 60% | 1023 hPa | 0 mm | - | 56 W/m² | - |
| 1777537192 | 13.89° C | 58% | 1023.2 hPa | 0 mm | - | 62 W/m² | - |
| 1777533590 | 12.78° C | 63% | 1023.2 hPa | 0 mm | - | 46 W/m² | - |
| 1777529990 | 11.67° C | 69% | 1023.2 hPa | 0 mm | - | 60 W/m² | - |
| 1777526390 | 10.56° C | 73% | 1023.2 hPa | 0 mm | - | 16 W/m² | - |
| 1777522788 | 10.56° C | 74% | 1023 hPa | 0 mm | - | 0 W/m² | - |
| 1777519186 | 10.56° C | 76% | 1023 hPa | 0 mm | - | 0 W/m² | - |
| 1777515586 | 10.56° C | 80% | 1023.1 hPa | 0 mm | - | 0 W/m² | - |
| 1777511976 | 10° C | 79% | 1023.1 hPa | 0 mm | - | 0 W/m² | - |
| 1777508376 | 10.56° C | 79% | 1023.4 hPa | 0 mm | - | 0 W/m² | - |
| 1777504776 | 10.56° C | 80% | 1023.5 hPa | 0 mm | - | 0 W/m² | - |
| 1777501175 | 10.56° C | 76% | 1023.7 hPa | 0 mm | - | 0 W/m² | - |
| 1777497570 | 11.11° C | 73% | 1023.6 hPa | 0 mm | - | 0 W/m² | - |
| 1777493970 | 11.67° C | 68% | 1023.5 hPa | 0 mm | - | 0 W/m² | - |
| 1777490371 | 12.22° C | 64% | 1023 hPa | 0 mm | - | 0 W/m² | - |
| 1777486771 | 13.33° C | 59% | 1022.7 hPa | 0 mm | - | 44 W/m² | - |
| 1777483170 | 14.44° C | 52% | 1022.6 hPa | 0 mm | - | 83 W/m² | - |
* Rain latest hour (hover to see other rain measurements)
** Current wind speed in m/s (hover to see current wind gust speed)